createdAt,value
2018-09-15T00:00:44.260Z,1017.54
2018-09-15T00:01:44.238Z,1017.59
2018-09-15T00:02:44.209Z,1017.53
2018-09-15T00:03:44.186Z,1017.51
2018-09-15T00:04:44.160Z,1017.52
2018-09-15T00:05:44.137Z,1017.55
2018-09-15T00:06:44.112Z,1017.55
2018-09-15T00:07:44.086Z,1017.56
2018-09-15T00:08:44.063Z,1017.54
2018-09-15T00:09:44.040Z,1017.50
2018-09-15T00:10:44.013Z,1017.53
2018-09-15T00:11:43.989Z,1017.53
2018-09-15T00:12:43.964Z,1017.50
2018-09-15T00:13:43.947Z,1017.51
2018-09-15T00:14:43.914Z,1017.54
2018-09-15T00:15:43.889Z,1017.55
2018-09-15T00:16:43.865Z,1017.55
2018-09-15T00:17:43.840Z,1017.46
2018-09-15T00:18:43.819Z,1017.48
2018-09-15T00:19:43.789Z,1017.52
2018-09-15T00:20:43.764Z,1017.54
2018-09-15T00:21:43.740Z,1017.50
2018-09-15T00:22:43.713Z,1017.48
2018-09-15T00:23:43.690Z,1017.46
2018-09-15T00:24:43.665Z,1017.46
2018-09-15T00:25:43.641Z,1017.47
2018-09-15T00:26:43.614Z,1017.43
2018-09-15T00:27:43.589Z,1017.43
2018-09-15T00:28:43.564Z,1017.42
2018-09-15T00:29:43.538Z,1017.45
2018-09-15T00:30:43.513Z,1017.44
2018-09-15T00:31:43.487Z,1017.41
2018-09-15T00:32:43.466Z,1017.44
2018-09-15T00:33:43.439Z,1017.46
2018-09-15T00:34:43.416Z,1017.47
2018-09-15T00:35:43.386Z,1017.43
2018-09-15T00:36:43.363Z,1017.46
2018-09-15T00:37:43.336Z,1017.47
2018-09-15T00:38:43.310Z,1017.48
2018-09-15T00:39:43.284Z,1017.43
2018-09-15T00:40:43.263Z,1017.41
2018-09-15T00:41:43.269Z,1017.41
2018-09-15T00:42:43.207Z,1017.43
2018-09-15T00:43:43.182Z,1017.44
2018-09-15T00:44:43.157Z,1017.46
2018-09-15T00:45:43.130Z,1017.47
2018-09-15T00:46:43.104Z,1017.47
2018-09-15T00:47:43.080Z,1017.47
2018-09-15T00:48:43.055Z,1017.50
2018-09-15T00:49:43.029Z,1017.52
2018-09-15T00:50:43.004Z,1017.51
2018-09-15T00:51:42.979Z,1017.47
2018-09-15T00:52:42.953Z,1017.46
2018-09-15T00:53:42.928Z,1017.51
2018-09-15T00:54:42.900Z,1017.49
2018-09-15T00:55:42.874Z,1017.53
2018-09-15T00:56:42.850Z,1017.53
2018-09-15T00:57:42.824Z,1017.57
2018-09-15T00:58:42.798Z,1017.58
2018-09-15T00:59:42.772Z,1017.58
2018-09-15T01:00:42.746Z,1017.64
2018-09-15T01:01:42.722Z,1017.66
2018-09-15T01:02:42.700Z,1017.64
2018-09-15T01:03:42.669Z,1017.64
2018-09-15T01:04:42.644Z,1017.65
2018-09-15T01:05:42.623Z,1017.65
2018-09-15T01:06:42.594Z,1017.69
2018-09-15T01:07:42.567Z,1017.70
2018-09-15T01:08:42.543Z,1017.68
2018-09-15T01:09:42.522Z,1017.67
2018-09-15T01:10:42.493Z,1017.63
2018-09-15T01:11:42.465Z,1017.60
2018-09-15T01:12:42.445Z,1017.59
2018-09-15T01:13:42.415Z,1017.65
2018-09-15T01:14:42.388Z,1017.68
2018-09-15T01:15:42.362Z,1017.67
2018-09-15T01:16:42.336Z,1017.68
2018-09-15T01:17:42.311Z,1017.78
2018-09-15T01:18:42.285Z,1017.76
2018-09-15T01:19:42.260Z,1017.72
2018-09-15T01:20:42.234Z,1017.68
2018-09-15T01:21:42.208Z,1017.68
2018-09-15T01:22:42.182Z,1017.71
2018-09-15T01:23:42.156Z,1017.72
2018-09-15T01:24:42.132Z,1017.73
2018-09-15T01:25:42.106Z,1017.72
2018-09-15T01:26:42.078Z,1017.73
2018-09-15T01:27:42.054Z,1017.71
2018-09-15T01:28:42.027Z,1017.70
2018-09-15T01:29:42.007Z,1017.71
2018-09-15T01:30:41.975Z,1017.67
2018-09-15T01:31:41.950Z,1017.66
2018-09-15T01:32:41.926Z,1017.63
2018-09-15T01:33:41.899Z,1017.63
2018-09-15T01:34:41.872Z,1017.64
2018-09-15T01:35:41.846Z,1017.68
2018-09-15T01:36:41.821Z,1017.73
2018-09-15T01:37:41.797Z,1017.68
2018-09-15T01:38:41.769Z,1017.65
2018-09-15T01:39:41.744Z,1017.66
2018-09-15T01:40:41.718Z,1017.69
2018-09-15T01:41:41.693Z,1017.73
2018-09-15T01:42:41.666Z,1017.73
2018-09-15T01:43:41.640Z,1017.73
2018-09-15T01:44:41.615Z,1017.73
2018-09-15T01:45:41.589Z,1017.73
2018-09-15T01:46:41.563Z,1017.77
2018-09-15T01:47:41.538Z,1017.70
2018-09-15T01:48:41.510Z,1017.67
2018-09-15T01:49:41.488Z,1017.66
2018-09-15T01:50:41.460Z,1017.70
2018-09-15T01:51:41.433Z,1017.71
2018-09-15T01:52:41.408Z,1017.66
2018-09-15T01:53:41.388Z,1017.76
2018-09-15T01:54:41.356Z,1017.70
2018-09-15T01:55:41.338Z,1017.72
2018-09-15T01:56:41.305Z,1017.74
2018-09-15T01:57:41.380Z,1017.72
2018-09-15T01:58:41.253Z,1017.72
2018-09-15T01:59:41.228Z,1017.72
2018-09-15T02:00:41.202Z,1017.76
2018-09-15T02:01:41.177Z,1017.72
2018-09-15T02:02:41.149Z,1017.80
2018-09-15T02:03:41.129Z,1017.80
2018-09-15T02:04:41.099Z,1017.81
2018-09-15T02:05:41.074Z,1017.75
2018-09-15T02:06:41.046Z,1017.79
2018-09-15T02:07:41.021Z,1017.81
2018-09-15T02:08:40.996Z,1017.85
2018-09-15T02:09:40.970Z,1017.78
2018-09-15T02:10:40.944Z,1017.76
2018-09-15T02:11:40.917Z,1017.76
2018-09-15T02:12:40.892Z,1017.77
2018-09-15T02:13:40.867Z,1017.78
2018-09-15T02:14:40.840Z,1017.77
2018-09-15T02:15:40.814Z,1017.74
2018-09-15T02:16:40.788Z,1017.77
2018-09-15T02:17:40.763Z,1017.76
2018-09-15T02:18:40.737Z,1017.76
2018-09-15T02:19:40.711Z,1017.78
2018-09-15T02:20:40.686Z,1017.82
2018-09-15T02:21:40.659Z,1017.77
2018-09-15T02:22:40.750Z,1017.75
2018-09-15T02:23:40.612Z,1017.76
2018-09-15T02:24:40.583Z,1017.73
2018-09-15T02:25:40.556Z,1017.77
2018-09-15T02:26:40.535Z,1017.79
2018-09-15T02:27:40.504Z,1017.79
2018-09-15T02:28:40.479Z,1017.76
2018-09-15T02:29:40.454Z,1017.80
2018-09-15T02:30:40.428Z,1017.77
2018-09-15T02:31:40.402Z,1017.77
2018-09-15T02:32:40.376Z,1017.73
2018-09-15T02:33:40.360Z,1017.72
2018-09-15T02:34:40.324Z,1017.73
2018-09-15T02:35:40.300Z,1017.78
2018-09-15T02:36:40.275Z,1017.79
2018-09-15T02:37:40.251Z,1017.83
2018-09-15T02:38:40.222Z,1017.83
2018-09-15T02:39:40.198Z,1017.86
2018-09-15T02:40:40.178Z,1017.84
2018-09-15T02:41:40.149Z,1017.85
2018-09-15T02:42:40.124Z,1017.88
2018-09-15T02:43:40.098Z,1017.84
2018-09-15T02:44:40.072Z,1017.88
2018-09-15T02:45:40.047Z,1017.84
2018-09-15T02:46:40.021Z,1017.84
2018-09-15T02:47:39.996Z,1017.82
2018-09-15T02:48:39.971Z,1017.85
2018-09-15T02:49:39.947Z,1017.90
2018-09-15T02:50:39.920Z,1017.89
2018-09-15T02:51:39.895Z,1017.89
2018-09-15T02:52:39.870Z,1017.91
2018-09-15T02:53:39.847Z,1017.88
2018-09-15T02:54:39.827Z,1017.89
2018-09-15T02:55:39.795Z,1017.90
2018-09-15T02:56:39.771Z,1017.90
2018-09-15T02:57:39.744Z,1017.90
2018-09-15T02:58:39.719Z,1017.95
2018-09-15T02:59:39.698Z,1017.95
2018-09-15T03:00:39.672Z,1017.98
2018-09-15T03:01:39.645Z,1017.96
2018-09-15T03:02:39.620Z,1017.94
2018-09-15T03:03:39.595Z,1017.93
2018-09-15T03:04:39.570Z,1017.94
2018-09-15T03:05:39.546Z,1017.95
2018-09-15T03:06:39.522Z,1017.96
2018-09-15T03:07:39.495Z,1017.96
2018-09-15T03:08:39.471Z,1017.96
2018-09-15T03:09:39.446Z,1017.96
2018-09-15T03:10:39.426Z,1017.95
2018-09-15T03:11:39.397Z,1017.98
2018-09-15T03:12:39.371Z,1017.95
2018-09-15T03:13:39.349Z,1017.95
2018-09-15T03:14:39.319Z,1017.93
2018-09-15T03:15:39.295Z,1017.97
2018-09-15T03:16:39.271Z,1017.98
2018-09-15T03:17:39.246Z,1017.98
2018-09-15T03:18:39.222Z,1017.97
2018-09-15T03:19:39.195Z,1017.96
2018-09-15T03:20:39.170Z,1017.95
2018-09-15T03:21:39.147Z,1017.97
2018-09-15T03:22:39.121Z,1017.97
2018-09-15T03:23:39.099Z,1017.99
2018-09-15T03:24:39.072Z,1017.99
2018-09-15T03:25:39.045Z,1017.91
2018-09-15T03:26:39.020Z,1017.93
2018-09-15T03:27:38.995Z,1017.93
2018-09-15T03:28:38.970Z,1017.98
2018-09-15T03:29:38.944Z,1017.97
2018-09-15T03:30:38.920Z,1017.99
2018-09-15T03:31:38.893Z,1018.01
2018-09-15T03:32:38.869Z,1018.05
2018-09-15T03:33:38.844Z,1018.06
2018-09-15T03:34:38.818Z,1018.04
2018-09-15T03:35:38.792Z,1018.06
2018-09-15T03:36:38.768Z,1018.05
2018-09-15T03:37:38.744Z,1018.05
2018-09-15T03:38:38.717Z,1018.08
2018-09-15T03:39:38.690Z,1018.08
2018-09-15T03:40:38.665Z,1018.10
2018-09-15T03:41:38.757Z,1018.05
2018-09-15T03:42:38.613Z,1018.06
2018-09-15T03:43:38.589Z,1018.05
2018-09-15T03:44:38.565Z,1018.02
2018-09-15T03:45:38.540Z,1018.02
2018-09-15T03:46:38.517Z,1018.04
2018-09-15T03:47:38.494Z,1018.05
2018-09-15T03:48:38.462Z,1018.03
2018-09-15T03:49:38.435Z,1018.05
2018-09-15T03:50:38.410Z,1018.04
2018-09-15T03:51:38.383Z,1018.06
2018-09-15T03:52:38.357Z,1018.05
2018-09-15T03:53:38.332Z,1018.05
2018-09-15T03:54:38.307Z,1018.06
2018-09-15T03:55:38.280Z,1018.04
2018-09-15T03:56:38.254Z,1018.05
2018-09-15T03:57:38.230Z,1018.04
2018-09-15T03:58:38.203Z,1018.07
2018-09-15T03:59:38.176Z,1018.13
2018-09-15T04:00:38.152Z,1018.07
2018-09-15T04:01:38.125Z,1018.10
2018-09-15T04:02:38.101Z,1018.11
2018-09-15T04:03:38.074Z,1018.08
2018-09-15T04:04:38.053Z,1018.10
2018-09-15T04:05:38.030Z,1018.08
2018-09-15T04:06:37.995Z,1018.13
2018-09-15T04:07:37.968Z,1018.07
2018-09-15T04:08:37.944Z,1018.05
2018-09-15T04:09:37.917Z,1018.10
2018-09-15T04:10:37.890Z,1018.13
2018-09-15T04:11:37.865Z,1018.11
2018-09-15T04:12:37.840Z,1018.11
2018-09-15T04:13:37.813Z,1018.10
2018-09-15T04:14:37.788Z,1018.14
2018-09-15T04:15:37.762Z,1018.10
2018-09-15T04:16:37.735Z,1018.09
2018-09-15T04:17:37.709Z,1018.10
2018-09-15T04:18:37.683Z,1018.12
2018-09-15T04:19:37.656Z,1018.08
2018-09-15T04:20:37.630Z,1018.12
2018-09-15T04:21:37.605Z,1018.12
2018-09-15T04:22:37.580Z,1018.11
2018-09-15T04:23:37.552Z,1018.10
2018-09-15T04:24:37.526Z,1018.09
2018-09-15T04:25:37.500Z,1018.11
2018-09-15T04:26:37.471Z,1018.16
2018-09-15T04:27:37.446Z,1018.18
2018-09-15T04:28:37.470Z,1018.22
2018-09-15T04:29:37.397Z,1018.24
2018-09-15T04:30:37.366Z,1018.22
2018-09-15T04:31:37.342Z,1018.26
2018-09-15T04:32:37.315Z,1018.24
2018-09-15T04:33:37.289Z,1018.27
2018-09-15T04:34:37.262Z,1018.34
2018-09-15T04:35:37.238Z,1018.31
2018-09-15T04:36:37.209Z,1018.33
2018-09-15T04:37:37.184Z,1018.31
2018-09-15T04:38:37.157Z,1018.32
2018-09-15T04:39:37.133Z,1018.34
2018-09-15T04:40:37.103Z,1018.33
2018-09-15T04:41:37.081Z,1018.31
2018-09-15T04:42:37.051Z,1018.34
2018-09-15T04:43:37.024Z,1018.33
2018-09-15T04:44:36.998Z,1018.29
2018-09-15T04:45:36.971Z,1018.29
2018-09-15T04:46:36.946Z,1018.30
2018-09-15T04:47:36.918Z,1018.29
2018-09-15T04:48:36.891Z,1018.26
2018-09-15T04:49:36.865Z,1018.29
2018-09-15T04:50:36.839Z,1018.31
2018-09-15T04:51:36.814Z,1018.26
2018-09-15T04:52:36.875Z,1018.27
2018-09-15T04:53:36.760Z,1018.32
2018-09-15T04:54:36.739Z,1018.27
2018-09-15T04:55:36.706Z,1018.29
2018-09-15T04:56:36.679Z,1018.29
2018-09-15T04:57:36.652Z,1018.27
2018-09-15T04:58:36.639Z,1018.29
2018-09-15T04:59:36.600Z,1018.32
2018-09-15T05:00:36.575Z,1018.32
2018-09-15T05:01:36.547Z,1018.31
2018-09-15T05:02:36.520Z,1018.33
2018-09-15T05:03:36.494Z,1018.36
2018-09-15T05:04:36.468Z,1018.33
2018-09-15T05:05:36.440Z,1018.39
2018-09-15T05:06:36.431Z,1018.41
2018-09-15T05:07:36.388Z,1018.38
2018-09-15T05:08:36.362Z,1018.39
2018-09-15T05:09:36.335Z,1018.41
2018-09-15T05:10:36.307Z,1018.44
2018-09-15T05:11:36.281Z,1018.42
2018-09-15T05:12:36.391Z,1018.46
2018-09-15T05:13:36.229Z,1018.45
2018-09-15T05:14:36.202Z,1018.46
2018-09-15T05:15:36.176Z,1018.46
2018-09-15T05:16:36.151Z,1018.45
2018-09-15T05:17:36.125Z,1018.42
2018-09-15T05:18:36.105Z,1018.49
2018-09-15T05:19:36.082Z,1018.48
2018-09-15T05:20:36.046Z,1018.43
2018-09-15T05:21:36.021Z,1018.47
2018-09-15T05:22:35.992Z,1018.48
2018-09-15T05:23:35.967Z,1018.49
2018-09-15T05:24:35.942Z,1018.48
2018-09-15T05:25:35.924Z,1018.48
2018-09-15T05:26:35.890Z,1018.53
2018-09-15T05:27:35.864Z,1018.49
2018-09-15T05:28:35.837Z,1018.45
2018-09-15T05:29:35.812Z,1018.48
2018-09-15T05:30:35.786Z,1018.48
2018-09-15T05:31:35.853Z,1018.52
2018-09-15T05:32:35.738Z,1018.54
2018-09-15T05:33:35.710Z,1018.53
2018-09-15T05:34:35.682Z,1018.54
2018-09-15T05:35:35.659Z,1018.52
2018-09-15T05:36:35.633Z,1018.56
2018-09-15T05:37:35.607Z,1018.57
2018-09-15T05:38:35.581Z,1018.59
2018-09-15T05:39:35.556Z,1018.61
2018-09-15T05:40:35.531Z,1018.63
2018-09-15T05:41:35.506Z,1018.64
2018-09-15T05:42:35.478Z,1018.66
2018-09-15T05:43:35.454Z,1018.61
2018-09-15T05:44:35.428Z,1018.65
2018-09-15T05:45:35.403Z,1018.72
2018-09-15T05:46:35.378Z,1018.72
2018-09-15T05:47:35.353Z,1018.73
2018-09-15T05:48:35.328Z,1018.74
2018-09-15T05:49:35.309Z,1018.72
2018-09-15T05:50:35.281Z,1018.77
2018-09-15T05:51:35.253Z,1018.75
2018-09-15T05:52:35.228Z,1018.80
2018-09-15T05:53:35.203Z,1018.73
2018-09-15T05:54:35.180Z,1018.76
2018-09-15T05:55:35.152Z,1018.76
2018-09-15T05:56:35.127Z,1018.80
2018-09-15T05:57:35.104Z,1018.78
2018-09-15T05:58:35.079Z,1018.78
2018-09-15T05:59:35.053Z,1018.86
2018-09-15T06:00:35.142Z,1018.81
2018-09-15T06:01:35.021Z,1018.84
2018-09-15T06:02:34.978Z,1018.87
2018-09-15T06:03:34.959Z,1018.89
2018-09-15T06:04:34.930Z,1018.90
2018-09-15T06:05:34.905Z,1018.87
2018-09-15T06:06:34.933Z,1018.87
2018-09-15T06:07:34.859Z,1018.90
2018-09-15T06:08:34.830Z,1018.92
2018-09-15T06:09:34.807Z,1018.98
2018-09-15T06:10:34.781Z,1018.94
2018-09-15T06:11:34.757Z,1018.99
2018-09-15T06:12:34.733Z,1019.01
2018-09-15T06:13:34.732Z,1018.98
2018-09-15T06:14:34.684Z,1018.98
2018-09-15T06:15:34.660Z,1019.02
2018-09-15T06:16:34.635Z,1018.99
2018-09-15T06:17:34.611Z,1019.00
2018-09-15T06:18:34.586Z,1019.01
2018-09-15T06:19:34.563Z,1019.03
2018-09-15T06:20:34.543Z,1019.03
2018-09-15T06:21:34.515Z,1019.00
2018-09-15T06:22:34.491Z,1019.03
2018-09-15T06:23:34.466Z,1019.00
2018-09-15T06:24:34.443Z,1019.04
2018-09-15T06:25:34.418Z,1019.10
2018-09-15T06:26:34.394Z,1019.08
2018-09-15T06:27:34.371Z,1019.09
2018-09-15T06:28:34.347Z,1019.05
2018-09-15T06:29:34.322Z,1019.08
2018-09-15T06:30:34.300Z,1019.07
2018-09-15T06:31:34.280Z,1019.12
2018-09-15T06:32:34.250Z,1019.12
2018-09-15T06:33:34.228Z,1019.12
2018-09-15T06:34:34.204Z,1019.13
2018-09-15T06:35:34.182Z,1019.13
2018-09-15T06:36:34.159Z,1019.10
2018-09-15T06:37:34.136Z,1019.12
2018-09-15T06:38:34.115Z,1019.11
2018-09-15T06:39:34.095Z,1019.06
2018-09-15T06:40:34.067Z,1019.10
2018-09-15T06:41:34.046Z,1019.09
2018-09-15T06:42:34.022Z,1019.06
2018-09-15T06:43:34.000Z,1019.09
2018-09-15T06:44:33.980Z,1019.12
2018-09-15T06:45:34.030Z,1019.06
2018-09-15T06:46:33.936Z,1019.09
2018-09-15T06:47:33.918Z,1019.10
2018-09-15T06:48:33.894Z,1019.09
2018-09-15T06:49:33.874Z,1019.09
2018-09-15T06:50:33.852Z,1019.10
2018-09-15T06:51:33.833Z,1019.10
2018-09-15T06:52:33.817Z,1019.12
2018-09-15T06:53:33.794Z,1019.12
2018-09-15T06:54:33.772Z,1019.18
2018-09-15T06:55:33.752Z,1019.18
2018-09-15T06:56:33.733Z,1019.24
2018-09-15T06:57:33.713Z,1019.24
2018-09-15T06:58:33.694Z,1019.28
2018-09-15T06:59:33.676Z,1019.30
2018-09-15T07:00:33.657Z,1019.28
2018-09-15T07:01:33.637Z,1019.27
2018-09-15T07:02:33.619Z,1019.33
2018-09-15T07:03:33.598Z,1019.39
2018-09-15T07:04:33.580Z,1019.38
2018-09-15T07:05:33.562Z,1019.45
2018-09-15T07:06:33.542Z,1019.47
2018-09-15T07:07:33.524Z,1019.47
2018-09-15T07:08:33.505Z,1019.51
2018-09-15T07:09:33.487Z,1019.53
2018-09-15T07:10:33.469Z,1019.54
2018-09-15T07:11:33.453Z,1019.54
2018-09-15T07:12:33.432Z,1019.56
2018-09-15T07:13:33.414Z,1019.56
2018-09-15T07:14:33.397Z,1019.59
2018-09-15T07:15:33.377Z,1019.59
2018-09-15T07:16:33.360Z,1019.58
2018-09-15T07:17:33.342Z,1019.59
2018-09-15T07:18:33.331Z,1019.62
2018-09-15T07:19:33.305Z,1019.57
2018-09-15T07:20:33.292Z,1019.62
2018-09-15T07:21:33.270Z,1019.60
2018-09-15T07:22:33.252Z,1019.59
2018-09-15T07:23:33.234Z,1019.58
2018-09-15T07:24:33.217Z,1019.61
2018-09-15T07:25:33.199Z,1019.63
2018-09-15T07:26:33.180Z,1019.56
2018-09-15T07:27:33.164Z,1019.59
2018-09-15T07:28:33.144Z,1019.62
2018-09-15T07:29:33.127Z,1019.64
2018-09-15T07:30:33.109Z,1019.59
2018-09-15T07:31:33.155Z,1019.65
2018-09-15T07:32:33.073Z,1019.68
2018-09-15T07:33:33.055Z,1019.63
2018-09-15T07:34:33.035Z,1019.67
2018-09-15T07:35:33.018Z,1019.66
2018-09-15T07:36:33.001Z,1019.70
2018-09-15T07:37:33.007Z,1019.68
2018-09-15T07:38:32.965Z,1019.74
2018-09-15T07:39:32.946Z,1019.66
2018-09-15T07:40:32.928Z,1019.66
2018-09-15T07:41:32.914Z,1019.70
2018-09-15T07:42:32.892Z,1019.70
2018-09-15T07:43:32.876Z,1019.69
2018-09-15T07:44:32.861Z,1019.70
2018-09-15T07:45:32.840Z,1019.70
2018-09-15T07:46:32.822Z,1019.62
2018-09-15T07:47:32.804Z,1019.69
2018-09-15T07:48:32.786Z,1019.69
2018-09-15T07:49:32.771Z,1019.74
2018-09-15T07:50:32.753Z,1019.69
2018-09-15T07:51:32.808Z,1019.66
2018-09-15T07:52:32.722Z,1019.67
2018-09-15T07:53:32.702Z,1019.72
2018-09-15T07:54:32.688Z,1019.76
2018-09-15T07:55:32.667Z,1019.74
2018-09-15T07:56:32.651Z,1019.71
2018-09-15T07:57:32.699Z,1019.71
2018-09-15T07:58:32.617Z,1019.75
2018-09-15T07:59:32.602Z,1019.73
2018-09-15T08:00:32.586Z,1019.77
2018-09-15T08:01:32.568Z,1019.76
2018-09-15T08:02:32.550Z,1019.86
2018-09-15T08:03:32.534Z,1019.86
2018-09-15T08:04:32.517Z,1019.85
2018-09-15T08:05:32.502Z,1019.85
2018-09-15T08:06:32.484Z,1019.90
2018-09-15T08:07:32.467Z,1019.88
2018-09-15T08:08:32.450Z,1019.89
2018-09-15T08:09:32.434Z,1019.90
2018-09-15T08:10:32.414Z,1019.91
2018-09-15T08:11:32.396Z,1019.90
2018-09-15T08:12:32.380Z,1019.86
2018-09-15T08:13:32.361Z,1019.88
2018-09-15T08:14:32.345Z,1019.86
2018-09-15T08:15:32.363Z,1019.87
2018-09-15T08:16:32.308Z,1019.85
2018-09-15T08:17:32.291Z,1019.85
2018-09-15T08:18:32.274Z,1019.81
2018-09-15T08:19:32.256Z,1019.85
2018-09-15T08:20:32.262Z,1019.88
2018-09-15T08:21:32.224Z,1019.85
2018-09-15T08:22:32.205Z,1019.88
2018-09-15T08:23:32.188Z,1019.90
2018-09-15T08:24:32.174Z,1019.87
2018-09-15T08:25:32.161Z,1019.84
2018-09-15T08:26:32.153Z,1019.84
2018-09-15T08:27:32.140Z,1019.89
2018-09-15T08:28:32.113Z,1019.96
2018-09-15T08:29:32.094Z,1019.98
2018-09-15T08:30:32.077Z,1019.92
2018-09-15T08:31:32.063Z,1019.88
2018-09-15T08:32:32.047Z,1019.90
2018-09-15T08:33:32.033Z,1019.85
2018-09-15T08:34:32.015Z,1019.88
2018-09-15T08:35:31.999Z,1019.91
2018-09-15T08:36:31.985Z,1019.90
2018-09-15T08:37:32.023Z,1019.96
2018-09-15T08:38:31.952Z,1019.95
2018-09-15T08:39:31.938Z,1019.91
2018-09-15T08:40:31.928Z,1019.87
2018-09-15T08:41:31.905Z,1019.86
2018-09-15T08:42:31.890Z,1019.82
2018-09-15T08:43:31.874Z,1019.90
2018-09-15T08:44:31.859Z,1019.84
2018-09-15T08:45:31.842Z,1019.87
2018-09-15T08:46:31.827Z,1019.93
2018-09-15T08:47:31.810Z,1019.94
2018-09-15T08:48:31.793Z,1019.86
2018-09-15T08:49:31.776Z,1019.85
2018-09-15T08:50:31.761Z,1019.91
2018-09-15T08:51:31.746Z,1019.98
2018-09-15T08:52:31.730Z,1019.93
2018-09-15T08:53:31.713Z,1019.89
2018-09-15T08:54:31.697Z,1019.91
2018-09-15T08:55:31.683Z,1019.93
2018-09-15T08:56:31.665Z,1019.92
2018-09-15T08:57:31.648Z,1019.94
2018-09-15T08:58:31.639Z,1019.92
2018-09-15T08:59:31.616Z,1019.93
2018-09-15T09:00:31.602Z,1019.94
2018-09-15T09:01:31.586Z,1019.94
2018-09-15T09:02:31.569Z,1019.96
2018-09-15T09:03:31.557Z,1019.94
2018-09-15T09:04:31.539Z,1019.93
2018-09-15T09:05:31.524Z,1019.94
2018-09-15T09:06:31.508Z,1019.98
2018-09-15T09:07:31.494Z,1019.97
2018-09-15T09:08:31.479Z,1019.99
2018-09-15T09:09:31.464Z,1019.96
2018-09-15T09:10:31.448Z,1020.02
2018-09-15T09:11:31.434Z,1020.05
2018-09-15T09:12:31.419Z,1020.00
2018-09-15T09:13:31.404Z,1020.02
2018-09-15T09:14:31.389Z,1020.05
2018-09-15T09:15:31.377Z,1020.06
2018-09-15T09:16:31.361Z,1020.10
2018-09-15T09:17:31.346Z,1020.07
2018-09-15T09:18:31.334Z,1020.00
2018-09-15T09:19:31.315Z,1020.04
2018-09-15T09:20:31.301Z,1020.10
2018-09-15T09:21:31.285Z,1020.11
2018-09-15T09:22:31.270Z,1020.05
2018-09-15T09:23:31.255Z,1020.08
2018-09-15T09:24:31.238Z,1020.10
2018-09-15T09:25:31.222Z,1020.09
2018-09-15T09:26:31.351Z,1020.07
2018-09-15T09:27:31.188Z,1020.07
2018-09-15T09:28:31.173Z,1020.12
2018-09-15T09:29:31.156Z,1020.13
2018-09-15T09:30:31.139Z,1020.11
2018-09-15T09:31:31.122Z,1020.13
2018-09-15T09:32:31.104Z,1020.11
2018-09-15T09:33:31.088Z,1020.18
2018-09-15T09:34:31.070Z,1020.14
2018-09-15T09:35:31.053Z,1020.15
2018-09-15T09:36:31.035Z,1020.10
2018-09-15T09:37:31.018Z,1020.17
2018-09-15T09:38:30.999Z,1020.18
2018-09-15T09:39:30.982Z,1020.16
2018-09-15T09:40:30.965Z,1020.16
2018-09-15T09:41:30.964Z,1020.16
2018-09-15T09:42:30.930Z,1020.18
2018-09-15T09:43:30.915Z,1020.18
2018-09-15T09:44:30.893Z,1020.15
2018-09-15T09:45:30.882Z,1020.10
2018-09-15T09:46:30.858Z,1020.14
2018-09-15T09:47:30.842Z,1020.05
2018-09-15T09:48:30.823Z,1020.09
2018-09-15T09:49:30.810Z,1020.10
2018-09-15T09:50:30.790Z,1020.14
2018-09-15T09:51:30.775Z,1020.11
2018-09-15T09:52:30.758Z,1020.13
2018-09-15T09:53:30.741Z,1020.20
2018-09-15T09:54:30.724Z,1020.16
2018-09-15T09:55:30.709Z,1020.21
2018-09-15T09:56:30.693Z,1020.26
2018-09-15T09:57:30.677Z,1020.11
2018-09-15T09:58:30.660Z,1020.18
2018-09-15T09:59:30.644Z,1020.24
2018-09-15T10:00:30.628Z,1020.15
2018-09-15T10:01:30.610Z,1020.21
2018-09-15T10:02:30.592Z,1020.14
2018-09-15T10:03:30.575Z,1020.17
2018-09-15T10:04:30.559Z,1020.19
2018-09-15T10:05:30.543Z,1020.23
2018-09-15T10:06:30.521Z,1020.14
2018-09-15T10:07:30.505Z,1020.22
2018-09-15T10:08:30.487Z,1020.18
2018-09-15T10:09:30.469Z,1020.18
2018-09-15T10:10:30.450Z,1020.10
2018-09-15T10:11:30.433Z,1020.19
2018-09-15T10:12:30.415Z,1020.16
2018-09-15T10:13:30.397Z,1020.20
2018-09-15T10:14:30.387Z,1020.13
2018-09-15T10:15:30.361Z,1020.15
2018-09-15T10:16:30.345Z,1020.13
2018-09-15T10:17:30.325Z,1020.12
2018-09-15T10:18:30.309Z,1020.21
2018-09-15T10:19:30.293Z,1020.21
2018-09-15T10:20:30.270Z,1020.23
2018-09-15T10:21:30.290Z,1020.20
2018-09-15T10:22:30.233Z,1020.21
2018-09-15T10:23:30.216Z,1020.22
2018-09-15T10:24:30.196Z,1020.15
2018-09-15T10:25:30.179Z,1020.22
2018-09-15T10:26:30.158Z,1020.24
2018-09-15T10:27:30.143Z,1020.22
2018-09-15T10:28:30.121Z,1020.24
2018-09-15T10:29:30.103Z,1020.20
2018-09-15T10:30:30.083Z,1020.18
2018-09-15T10:31:30.065Z,1020.17
2018-09-15T10:32:30.048Z,1020.21
2018-09-15T10:33:30.032Z,1020.18
2018-09-15T10:34:30.010Z,1020.21
2018-09-15T10:35:29.990Z,1020.15
2018-09-15T10:36:29.973Z,1020.13
2018-09-15T10:37:29.954Z,1020.15
2018-09-15T10:38:29.965Z,1020.08
2018-09-15T10:39:29.919Z,1020.09
2018-09-15T10:40:29.985Z,1020.04
2018-09-15T10:41:29.883Z,1020.03
2018-09-15T10:42:29.864Z,1020.05
2018-09-15T10:43:29.847Z,1020.07
2018-09-15T10:44:29.830Z,1019.96
2018-09-15T10:45:29.814Z,1020.02
2018-09-15T10:46:29.803Z,1020.08
2018-09-15T10:47:29.781Z,1020.06
2018-09-15T10:48:29.762Z,1020.01
2018-09-15T10:49:29.746Z,1020.03
2018-09-15T10:50:29.729Z,1020.00
2018-09-15T10:51:29.713Z,1019.99
2018-09-15T10:52:29.782Z,1020.05
2018-09-15T10:53:29.677Z,1020.03
2018-09-15T10:54:29.660Z,1019.93
2018-09-15T10:55:29.644Z,1019.97
2018-09-15T10:56:29.627Z,1020.04
2018-09-15T10:57:29.608Z,1020.05
2018-09-15T10:58:29.640Z,1020.05
2018-09-15T10:59:29.574Z,1020.02
2018-09-15T11:00:29.626Z,1020.03
2018-09-15T11:01:29.540Z,1020.04
2018-09-15T11:02:29.520Z,1020.06
2018-09-15T11:03:29.503Z,1020.11
2018-09-15T11:04:29.486Z,1020.12
2018-09-15T11:05:29.469Z,1020.15
2018-09-15T11:06:29.455Z,1020.14
2018-09-15T11:07:29.432Z,1020.10
2018-09-15T11:08:29.419Z,1020.01
2018-09-15T11:09:29.398Z,1020.05
2018-09-15T11:10:29.379Z,1020.02
2018-09-15T11:11:29.360Z,1020.11
2018-09-15T11:12:29.343Z,1020.07
2018-09-15T11:13:29.357Z,1020.11
2018-09-15T11:14:29.307Z,1020.15
2018-09-15T11:15:29.291Z,1020.19
2018-09-15T11:16:29.271Z,1020.20
2018-09-15T11:17:29.253Z,1020.21
2018-09-15T11:18:29.235Z,1020.19
2018-09-15T11:19:29.214Z,1020.25
2018-09-15T11:20:29.198Z,1020.19
2018-09-15T11:21:29.179Z,1020.23
2018-09-15T11:22:29.176Z,1020.30
2018-09-15T11:23:29.140Z,1020.22
2018-09-15T11:24:29.123Z,1020.26
2018-09-15T11:25:29.104Z,1020.22
2018-09-15T11:26:29.082Z,1020.23
2018-09-15T11:27:29.065Z,1020.31
2018-09-15T11:28:29.053Z,1020.36
2018-09-15T11:29:29.027Z,1020.31
2018-09-15T11:30:29.007Z,1020.33
2018-09-15T11:31:28.988Z,1020.32
2018-09-15T11:32:28.968Z,1020.38
2018-09-15T11:33:28.949Z,1020.33
2018-09-15T11:34:28.930Z,1020.36
2018-09-15T11:35:28.911Z,1020.41
2018-09-15T11:36:28.892Z,1020.43
2018-09-15T11:37:28.873Z,1020.45
2018-09-15T11:38:28.852Z,1020.42
2018-09-15T11:39:28.832Z,1020.36
2018-09-15T11:40:28.815Z,1020.40
2018-09-15T11:41:28.794Z,1020.34
2018-09-15T11:42:28.775Z,1020.33
2018-09-15T11:43:28.762Z,1020.34
2018-09-15T11:44:28.736Z,1020.36
2018-09-15T11:45:28.718Z,1020.36
2018-09-15T11:46:28.698Z,1020.36
2018-09-15T11:47:28.679Z,1020.36
2018-09-15T11:48:28.660Z,1020.36
2018-09-15T11:49:28.641Z,1020.37
2018-09-15T11:50:28.621Z,1020.38
2018-09-15T11:51:28.602Z,1020.34
2018-09-15T11:52:28.583Z,1020.34
2018-09-15T11:53:28.563Z,1020.35
2018-09-15T11:54:28.543Z,1020.38
2018-09-15T11:55:28.525Z,1020.34
2018-09-15T11:56:28.506Z,1020.36
2018-09-15T11:57:28.485Z,1020.41
2018-09-15T11:58:28.466Z,1020.35
2018-09-15T11:59:28.446Z,1020.39
2018-09-15T12:00:28.428Z,1020.34
2018-09-15T12:01:28.460Z,1020.35
2018-09-15T12:02:28.389Z,1020.33
2018-09-15T12:03:28.373Z,1020.34
2018-09-15T12:04:28.350Z,1020.29
2018-09-15T12:05:28.332Z,1020.38